Arcadia, North Carolina
Current Conditions -  °F | °C
As of 12:15 AM on Wednesday 26 Nov 2014 (Local Time) from KEXX Reporting Station
Light Rain Light Rain  
Wind Chill: 47°   Ceiling: 2400
Heat Index: 47°   Visibility: 7mi
Dew Point: 45°   Wind: 0mph
Humidity: 92%   Direction: NA
Pressure: 30.06"   Gusts: NA
Location:  35.7974°N, 80.2541°W
Report Text: KEXX 260515Z AUTO 00000KT 7SM -RA BKN024 BKN040 OVC060 08/07 A3006 RMK AO2 P0002 T00840071
Loading
Personal Weather Stations






























Interactive Weather Map New forecast layout! Learn more

10-Day Weather Forecast

Advertisements
Track Severe Weather on mobile